sensor_id;sensor_type;location;lat;lon;timestamp;P1;durP1;ratioP1;P2;durP2;ratioP2
5871;SDS011;2962;51.312;7.378;2023-02-20T00:00:17;6.10;;;5.50;;
5871;SDS011;2962;51.312;7.378;2023-02-20T00:02:46;4.57;;;4.20;;
5871;SDS011;2962;51.312;7.378;2023-02-20T00:05:12;5.55;;;4.72;;
5871;SDS011;2962;51.312;7.378;2023-02-20T00:07:37;5.80;;;5.17;;
5871;SDS011;2962;51.312;7.378;2023-02-20T00:10:03;9.27;;;6.07;;
5871;SDS011;2962;51.312;7.378;2023-02-20T00:12:28;7.50;;;5.60;;
5871;SDS011;2962;51.312;7.378;2023-02-20T00:14:54;11.83;;;7.23;;
5871;SDS011;2962;51.312;7.378;2023-02-20T00:17:19;11.47;;;6.90;;
5871;SDS011;2962;51.312;7.378;2023-02-20T00:19:44;12.57;;;7.40;;
5871;SDS011;2962;51.312;7.378;2023-02-20T00:22:09;13.50;;;8.10;;
5871;SDS011;2962;51.312;7.378;2023-02-20T00:24:35;16.90;;;8.70;;
5871;SDS011;2962;51.312;7.378;2023-02-20T00:27:00;15.43;;;7.80;;
5871;SDS011;2962;51.312;7.378;2023-02-20T00:29:25;17.07;;;9.77;;
5871;SDS011;2962;51.312;7.378;2023-02-20T00:31:54;18.10;;;8.93;;
5871;SDS011;2962;51.312;7.378;2023-02-20T00:34:22;11.35;;;7.25;;
5871;SDS011;2962;51.312;7.378;2023-02-20T00:36:49;21.23;;;9.13;;
5871;SDS011;2962;51.312;7.378;2023-02-20T00:39:14;15.23;;;7.47;;
5871;SDS011;2962;51.312;7.378;2023-02-20T00:41:39;15.60;;;8.40;;
5871;SDS011;2962;51.312;7.378;2023-02-20T00:44:05;20.37;;;9.67;;
5871;SDS011;2962;51.312;7.378;2023-02-20T00:46:30;19.90;;;9.63;;
5871;SDS011;2962;51.312;7.378;2023-02-20T00:48:56;18.63;;;9.43;;
5871;SDS011;2962;51.312;7.378;2023-02-20T00:51:21;17.40;;;10.00;;
5871;SDS011;2962;51.312;7.378;2023-02-20T00:53:46;24.20;;;12.40;;
5871;SDS011;2962;51.312;7.378;2023-02-20T00:56:11;24.57;;;10.37;;
5871;SDS011;2962;51.312;7.378;2023-02-20T00:58:37;30.37;;;12.83;;
5871;SDS011;2962;51.312;7.378;2023-02-20T01:01:02;25.27;;;12.80;;
5871;SDS011;2962;51.312;7.378;2023-02-20T01:03:27;23.67;;;11.50;;
5871;SDS011;2962;51.312;7.378;2023-02-20T01:05:53;32.10;;;13.20;;
5871;SDS011;2962;51.312;7.378;2023-02-20T01:08:18;27.13;;;13.53;;
5871;SDS011;2962;51.312;7.378;2023-02-20T01:10:43;35.07;;;14.27;;
5871;SDS011;2962;51.312;7.378;2023-02-20T01:13:08;30.43;;;11.53;;
5871;SDS011;2962;51.312;7.378;2023-02-20T01:15:34;27.70;;;13.60;;
5871;SDS011;2962;51.312;7.378;2023-02-20T01:17:59;32.07;;;15.37;;
5871;SDS011;2962;51.312;7.378;2023-02-20T01:20:24;31.60;;;14.57;;
5871;SDS011;2962;51.312;7.378;2023-02-20T01:22:50;30.23;;;14.50;;
5871;SDS011;2962;51.312;7.378;2023-02-20T01:25:15;29.90;;;15.77;;
5871;SDS011;2962;51.312;7.378;2023-02-20T01:27:41;37.30;;;15.00;;
5871;SDS011;2962;51.312;7.378;2023-02-20T01:30:06;36.60;;;16.30;;
5871;SDS011;2962;51.312;7.378;2023-02-20T01:32:33;34.63;;;16.80;;
5871;SDS011;2962;51.312;7.378;2023-02-20T01:34:58;36.23;;;18.00;;
5871;SDS011;2962;51.312;7.378;2023-02-20T01:37:23;31.20;;;14.43;;
5871;SDS011;2962;51.312;7.378;2023-02-20T01:39:49;37.00;;;17.03;;
5871;SDS011;2962;51.312;7.378;2023-02-20T01:42:18;34.37;;;15.87;;
5871;SDS011;2962;51.312;7.378;2023-02-20T01:44:46;43.83;;;17.20;;
5871;SDS011;2962;51.312;7.378;2023-02-20T01:47:14;38.10;;;15.33;;
5871;SDS011;2962;51.312;7.378;2023-02-20T01:49:51;30.50;;;15.93;;
5871;SDS011;2962;51.312;7.378;2023-02-20T01:52:28;35.80;;;16.30;;
5871;SDS011;2962;51.312;7.378;2023-02-20T01:55:04;38.25;;;16.20;;
5871;SDS011;2962;51.312;7.378;2023-02-20T01:57:39;31.17;;;15.07;;
5871;SDS011;2962;51.312;7.378;2023-02-20T02:00:08;30.97;;;15.40;;
5871;SDS011;2962;51.312;7.378;2023-02-20T02:02:37;27.85;;;13.45;;
5871;SDS011;2962;51.312;7.378;2023-02-20T02:05:08;28.30;;;14.40;;
5871;SDS011;2962;51.312;7.378;2023-02-20T02:07:35;27.70;;;13.57;;
5871;SDS011;2962;51.312;7.378;2023-02-20T02:10:08;28.90;;;14.50;;
5871;SDS011;2962;51.312;7.378;2023-02-20T02:12:35;25.10;;;14.40;;
5871;SDS011;2962;51.312;7.378;2023-02-20T02:15:01;25.80;;;12.27;;
5871;SDS011;2962;51.312;7.378;2023-02-20T02:26:13;29.20;;;13.20;;
5871;SDS011;2962;51.312;7.378;2023-02-20T02:31:31;19.70;;;11.80;;
5871;SDS011;2962;51.312;7.378;2023-02-20T02:34:25;26.93;;;13.23;;
5871;SDS011;2962;51.312;7.378;2023-02-20T02:37:17;25.23;;;12.20;;
5871;SDS011;2962;51.312;7.378;2023-02-20T02:39:51;24.77;;;12.93;;
5871;SDS011;2962;51.312;7.378;2023-02-20T02:47:55;27.47;;;13.77;;
5871;SDS011;2962;51.312;7.378;2023-02-20T02:50:32;28.10;;;13.20;;
5871;SDS011;2962;51.312;7.378;2023-02-20T02:53:00;33.22;;;14.32;;
5871;SDS011;2962;51.312;7.378;2023-02-20T02:55:30;34.50;;;14.40;;
5871;SDS011;2962;51.312;7.378;2023-02-20T02:57:57;27.00;;;13.82;;
5871;SDS011;2962;51.312;7.378;2023-02-20T03:00:25;33.30;;;13.17;;
5871;SDS011;2962;51.312;7.378;2023-02-20T03:03:15;31.48;;;14.55;;
5871;SDS011;2962;51.312;7.378;2023-02-20T03:05:52;31.83;;;14.10;;
5871;SDS011;2962;51.312;7.378;2023-02-20T03:08:26;26.90;;;14.32;;
5871;SDS011;2962;51.312;7.378;2023-02-20T03:10:58;24.85;;;13.48;;
5871;SDS011;2962;51.312;7.378;2023-02-20T03:13:28;26.42;;;10.02;;
5871;SDS011;2962;51.312;7.378;2023-02-20T03:16:16;25.27;;;14.05;;
5871;SDS011;2962;51.312;7.378;2023-02-20T03:18:44;27.27;;;12.57;;
5871;SDS011;2962;51.312;7.378;2023-02-20T03:21:16;32.97;;;13.87;;
5871;SDS011;2962;51.312;7.378;2023-02-20T03:23:46;14.48;;;8.32;;
5871;SDS011;2962;51.312;7.378;2023-02-20T03:26:19;25.95;;;14.10;;
5871;SDS011;2962;51.312;7.378;2023-02-20T03:28:58;28.50;;;13.27;;
5871;SDS011;2962;51.312;7.378;2023-02-20T03:31:31;27.20;;;12.85;;
5871;SDS011;2962;51.312;7.378;2023-02-20T03:34:08;31.23;;;14.48;;
5871;SDS011;2962;51.312;7.378;2023-02-20T03:37:05;28.83;;;13.23;;
5871;SDS011;2962;51.312;7.378;2023-02-20T03:39:54;34.80;;;11.93;;
5871;SDS011;2962;51.312;7.378;2023-02-20T03:42:44;34.72;;;13.93;;
5871;SDS011;2962;51.312;7.378;2023-02-20T03:45:31;28.75;;;14.27;;
5871;SDS011;2962;51.312;7.378;2023-02-20T03:48:02;31.38;;;13.88;;
5871;SDS011;2962;51.312;7.378;2023-02-20T03:50:31;41.42;;;14.98;;
5871;SDS011;2962;51.312;7.378;2023-02-20T03:53:15;29.58;;;13.32;;
5871;SDS011;2962;51.312;7.378;2023-02-20T03:55:41;32.00;;;13.33;;
5871;SDS011;2962;51.312;7.378;2023-02-20T03:58:07;18.50;;;10.37;;
5871;SDS011;2962;51.312;7.378;2023-02-20T04:00:43;30.47;;;13.80;;
5871;SDS011;2962;51.312;7.378;2023-02-20T04:03:16;31.27;;;14.32;;
5871;SDS011;2962;51.312;7.378;2023-02-20T04:05:46;36.78;;;12.15;;
5871;SDS011;2962;51.312;7.378;2023-02-20T04:10:56;38.55;;;15.32;;
5871;SDS011;2962;51.312;7.378;2023-02-20T04:13:26;27.63;;;12.93;;
5871;SDS011;2962;51.312;7.378;2023-02-20T04:15:53;34.00;;;14.40;;
5871;SDS011;2962;51.312;7.378;2023-02-20T04:18:22;23.40;;;10.07;;
5871;SDS011;2962;51.312;7.378;2023-02-20T04:20:49;28.83;;;11.90;;
5871;SDS011;2962;51.312;7.378;2023-02-20T04:23:18;33.80;;;10.65;;
5871;SDS011;2962;51.312;7.378;2023-02-20T04:25:48;40.28;;;14.35;;
5871;SDS011;2962;51.312;7.378;2023-02-20T04:28:20;22.00;;;11.20;;
5871;SDS011;2962;51.312;7.378;2023-02-20T04:30:46;22.58;;;10.88;;
5871;SDS011;2962;51.312;7.378;2023-02-20T04:33:12;23.40;;;9.60;;
5871;SDS011;2962;51.312;7.378;2023-02-20T04:35:38;23.23;;;10.70;;
5871;SDS011;2962;51.312;7.378;2023-02-20T04:38:04;25.20;;;10.30;;
5871;SDS011;2962;51.312;7.378;2023-02-20T04:40:30;25.70;;;10.93;;
5871;SDS011;2962;51.312;7.378;2023-02-20T04:42:55;26.20;;;10.50;;
5871;SDS011;2962;51.312;7.378;2023-02-20T04:45:20;26.43;;;10.03;;
5871;SDS011;2962;51.312;7.378;2023-02-20T04:47:45;23.70;;;7.93;;
5871;SDS011;2962;51.312;7.378;2023-02-20T04:50:27;22.43;;;10.33;;
5871;SDS011;2962;51.312;7.378;2023-02-20T04:52:54;25.60;;;10.57;;
5871;SDS011;2962;51.312;7.378;2023-02-20T04:55:20;27.57;;;10.63;;
5871;SDS011;2962;51.312;7.378;2023-02-20T04:57:46;20.83;;;9.30;;
5871;SDS011;2962;51.312;7.378;2023-02-20T05:00:12;22.63;;;10.00;;
5871;SDS011;2962;51.312;7.378;2023-02-20T05:02:39;24.42;;;10.50;;
5871;SDS011;2962;51.312;7.378;2023-02-20T05:05:05;31.00;;;10.60;;
5871;SDS011;2962;51.312;7.378;2023-02-20T05:07:38;28.58;;;10.43;;
5871;SDS011;2962;51.312;7.378;2023-02-20T05:10:04;19.73;;;9.97;;
5871;SDS011;2962;51.312;7.378;2023-02-20T05:12:29;15.83;;;9.40;;
5871;SDS011;2962;51.312;7.378;2023-02-20T05:14:54;30.23;;;11.10;;
5871;SDS011;2962;51.312;7.378;2023-02-20T05:17:19;20.33;;;9.57;;
5871;SDS011;2962;51.312;7.378;2023-02-20T05:19:45;29.20;;;9.20;;
5871;SDS011;2962;51.312;7.378;2023-02-20T05:22:10;18.60;;;10.53;;
5871;SDS011;2962;51.312;7.378;2023-02-20T05:24:46;19.58;;;10.05;;
5871;SDS011;2962;51.312;7.378;2023-02-20T05:27:12;20.38;;;9.60;;
5871;SDS011;2962;51.312;7.378;2023-02-20T05:29:43;27.02;;;10.52;;
5871;SDS011;2962;51.312;7.378;2023-02-20T05:32:09;26.52;;;10.57;;
5871;SDS011;2962;51.312;7.378;2023-02-20T05:34:35;14.23;;;8.70;;
5871;SDS011;2962;51.312;7.378;2023-02-20T05:37:00;22.70;;;9.23;;
5871;SDS011;2962;51.312;7.378;2023-02-20T05:39:25;15.93;;;8.60;;
5871;SDS011;2962;51.312;7.378;2023-02-20T05:41:50;21.00;;;8.80;;
5871;SDS011;2962;51.312;7.378;2023-02-20T05:44:16;20.90;;;9.03;;
5871;SDS011;2962;51.312;7.378;2023-02-20T05:46:41;29.07;;;8.63;;
5871;SDS011;2962;51.312;7.378;2023-02-20T05:49:07;18.00;;;9.00;;
5871;SDS011;2962;51.312;7.378;2023-02-20T05:51:34;15.77;;;8.35;;
5871;SDS011;2962;51.312;7.378;2023-02-20T05:53:59;16.83;;;9.30;;
5871;SDS011;2962;51.312;7.378;2023-02-20T05:56:24;19.67;;;10.07;;
5871;SDS011;2962;51.312;7.378;2023-02-20T05:58:50;21.73;;;9.07;;
5871;SDS011;2962;51.312;7.378;2023-02-20T06:01:19;14.90;;;7.73;;
5871;SDS011;2962;51.312;7.378;2023-02-20T06:03:46;15.50;;;8.07;;
5871;SDS011;2962;51.312;7.378;2023-02-20T06:06:11;18.33;;;8.80;;
5871;SDS011;2962;51.312;7.378;2023-02-20T06:08:37;19.83;;;10.10;;
5871;SDS011;2962;51.312;7.378;2023-02-20T06:11:03;22.25;;;9.93;;
5871;SDS011;2962;51.312;7.378;2023-02-20T06:13:28;16.90;;;9.90;;
5871;SDS011;2962;51.312;7.378;2023-02-20T06:15:53;21.23;;;9.30;;
5871;SDS011;2962;51.312;7.378;2023-02-20T06:18:19;22.10;;;9.10;;
5871;SDS011;2962;51.312;7.378;2023-02-20T06:20:44;20.90;;;8.13;;
5871;SDS011;2962;51.312;7.378;2023-02-20T06:23:09;14.33;;;8.90;;
5871;SDS011;2962;51.312;7.378;2023-02-20T06:25:34;18.50;;;8.50;;
5871;SDS011;2962;51.312;7.378;2023-02-20T06:28:00;16.90;;;8.37;;
5871;SDS011;2962;51.312;7.378;2023-02-20T06:30:25;15.37;;;8.63;;
5871;SDS011;2962;51.312;7.378;2023-02-20T06:32:50;25.97;;;8.67;;
5871;SDS011;2962;51.312;7.378;2023-02-20T06:35:15;23.60;;;7.67;;
5871;SDS011;2962;51.312;7.378;2023-02-20T06:37:41;15.80;;;7.03;;
5871;SDS011;2962;51.312;7.378;2023-02-20T06:40:07;12.33;;;7.20;;
5871;SDS011;2962;51.312;7.378;2023-02-20T06:42:32;16.33;;;6.83;;
5871;SDS011;2962;51.312;7.378;2023-02-20T06:44:58;9.83;;;7.17;;
5871;SDS011;2962;51.312;7.378;2023-02-20T06:47:23;14.30;;;7.80;;
5871;SDS011;2962;51.312;7.378;2023-02-20T06:49:48;9.13;;;7.10;;
5871;SDS011;2962;51.312;7.378;2023-02-20T06:52:14;19.07;;;7.20;;
5871;SDS011;2962;51.312;7.378;2023-02-20T06:54:39;8.03;;;5.20;;
5871;SDS011;2962;51.312;7.378;2023-02-20T06:57:04;18.67;;;7.60;;
5871;SDS011;2962;51.312;7.378;2023-02-20T06:59:30;10.30;;;7.23;;
5871;SDS011;2962;51.312;7.378;2023-02-20T07:01:56;13.43;;;5.90;;
5871;SDS011;2962;51.312;7.378;2023-02-20T07:04:22;13.07;;;7.10;;
5871;SDS011;2962;51.312;7.378;2023-02-20T07:06:50;11.88;;;8.00;;
5871;SDS011;2962;51.312;7.378;2023-02-20T07:09:16;15.00;;;8.03;;
5871;SDS011;2962;51.312;7.378;2023-02-20T07:11:41;17.83;;;4.20;;
5871;SDS011;2962;51.312;7.378;2023-02-20T07:14:07;13.43;;;5.73;;
5871;SDS011;2962;51.312;7.378;2023-02-20T07:16:33;11.90;;;7.35;;
5871;SDS011;2962;51.312;7.378;2023-02-20T07:18:58;20.23;;;7.37;;
5871;SDS011;2962;51.312;7.378;2023-02-20T07:21:24;16.90;;;6.90;;
5871;SDS011;2962;51.312;7.378;2023-02-20T07:23:49;15.30;;;6.00;;
5871;SDS011;2962;51.312;7.378;2023-02-20T07:26:22;14.50;;;9.10;;
5871;SDS011;2962;51.312;7.378;2023-02-20T07:28:50;15.77;;;9.95;;
5871;SDS011;2962;51.312;7.378;2023-02-20T07:31:16;14.80;;;11.27;;
5871;SDS011;2962;51.312;7.378;2023-02-20T07:33:41;18.33;;;10.43;;
5871;SDS011;2962;51.312;7.378;2023-02-20T07:36:09;23.90;;;12.20;;
5871;SDS011;2962;51.312;7.378;2023-02-20T07:38:36;27.70;;;11.32;;
5871;SDS011;2962;51.312;7.378;2023-02-20T07:41:01;17.70;;;9.47;;
5871;SDS011;2962;51.312;7.378;2023-02-20T07:43:27;22.47;;;10.77;;
5871;SDS011;2962;51.312;7.378;2023-02-20T07:45:52;20.47;;;11.43;;
5871;SDS011;2962;51.312;7.378;2023-02-20T07:48:17;21.73;;;12.03;;
5871;SDS011;2962;51.312;7.378;2023-02-20T07:50:43;13.27;;;8.67;;
5871;SDS011;2962;51.312;7.378;2023-02-20T07:53:08;19.07;;;11.80;;
5871;SDS011;2962;51.312;7.378;2023-02-20T07:55:38;14.00;;;9.35;;
5871;SDS011;2962;51.312;7.378;2023-02-20T07:58:03;18.53;;;10.50;;
5871;SDS011;2962;51.312;7.378;2023-02-20T08:00:28;22.53;;;10.97;;
5871;SDS011;2962;51.312;7.378;2023-02-20T08:02:53;23.97;;;11.67;;
5871;SDS011;2962;51.312;7.378;2023-02-20T08:05:19;21.77;;;12.00;;
5871;SDS011;2962;51.312;7.378;2023-02-20T08:07:45;19.60;;;12.00;;
5871;SDS011;2962;51.312;7.378;2023-02-20T08:10:13;19.88;;;12.82;;
5871;SDS011;2962;51.312;7.378;2023-02-20T08:12:41;18.67;;;10.27;;
5871;SDS011;2962;51.312;7.378;2023-02-20T08:15:06;23.90;;;12.33;;
5871;SDS011;2962;51.312;7.378;2023-02-20T08:17:34;33.58;;;9.07;;
5871;SDS011;2962;51.312;7.378;2023-02-20T08:19:59;20.07;;;11.50;;
5871;SDS011;2962;51.312;7.378;2023-02-20T08:22:24;22.77;;;11.10;;
5871;SDS011;2962;51.312;7.378;2023-02-20T08:24:50;17.83;;;11.20;;
5871;SDS011;2962;51.312;7.378;2023-02-20T08:27:15;19.57;;;11.07;;
5871;SDS011;2962;51.312;7.378;2023-02-20T08:29:40;25.00;;;11.77;;
5871;SDS011;2962;51.312;7.378;2023-02-20T08:32:05;18.90;;;8.50;;
5871;SDS011;2962;51.312;7.378;2023-02-20T08:34:31;17.80;;;9.90;;
5871;SDS011;2962;51.312;7.378;2023-02-20T08:36:56;20.90;;;13.33;;
5871;SDS011;2962;51.312;7.378;2023-02-20T08:39:21;16.30;;;7.57;;
5871;SDS011;2962;51.312;7.378;2023-02-20T08:41:46;21.20;;;11.30;;
5871;SDS011;2962;51.312;7.378;2023-02-20T08:44:12;18.40;;;10.20;;
5871;SDS011;2962;51.312;7.378;2023-02-20T08:46:44;22.42;;;12.18;;
5871;SDS011;2962;51.312;7.378;2023-02-20T08:49:10;19.10;;;12.73;;
5871;SDS011;2962;51.312;7.378;2023-02-20T08:51:36;13.57;;;7.70;;
5871;SDS011;2962;51.312;7.378;2023-02-20T08:54:01;16.73;;;9.23;;
5871;SDS011;2962;51.312;7.378;2023-02-20T08:56:28;22.33;;;11.00;;
5871;SDS011;2962;51.312;7.378;2023-02-20T08:58:54;21.20;;;12.20;;
5871;SDS011;2962;51.312;7.378;2023-02-20T09:01:19;21.00;;;12.83;;
5871;SDS011;2962;51.312;7.378;2023-02-20T09:03:44;15.47;;;11.10;;
5871;SDS011;2962;51.312;7.378;2023-02-20T09:06:09;19.60;;;12.13;;
5871;SDS011;2962;51.312;7.378;2023-02-20T09:08:35;14.07;;;10.17;;
5871;SDS011;2962;51.312;7.378;2023-02-20T09:11:00;19.47;;;11.97;;
5871;SDS011;2962;51.312;7.378;2023-02-20T09:13:27;20.08;;;12.95;;
5871;SDS011;2962;51.312;7.378;2023-02-20T09:15:52;19.40;;;11.37;;
5871;SDS011;2962;51.312;7.378;2023-02-20T09:18:17;18.77;;;12.67;;
5871;SDS011;2962;51.312;7.378;2023-02-20T09:20:43;21.23;;;13.70;;
5871;SDS011;2962;51.312;7.378;2023-02-20T09:23:08;24.13;;;14.57;;
5871;SDS011;2962;51.312;7.378;2023-02-20T09:25:34;26.10;;;15.70;;
5871;SDS011;2962;51.312;7.378;2023-02-20T09:28:00;27.60;;;15.53;;
5871;SDS011;2962;51.312;7.378;2023-02-20T09:30:25;28.73;;;16.07;;
5871;SDS011;2962;51.312;7.378;2023-02-20T09:32:51;25.70;;;16.47;;
5871;SDS011;2962;51.312;7.378;2023-02-20T09:35:17;28.70;;;16.90;;
5871;SDS011;2962;51.312;7.378;2023-02-20T09:37:46;28.02;;;15.00;;
5871;SDS011;2962;51.312;7.378;2023-02-20T09:40:12;29.13;;;17.00;;
5871;SDS011;2962;51.312;7.378;2023-02-20T09:55:55;30.17;;;18.33;;
5871;SDS011;2962;51.312;7.378;2023-02-20T09:58:40;32.45;;;17.55;;
5871;SDS011;2962;51.312;7.378;2023-02-20T10:01:11;35.95;;;17.00;;
5871;SDS011;2962;51.312;7.378;2023-02-20T10:03:47;47.97;;;18.63;;
5871;SDS011;2962;51.312;7.378;2023-02-20T10:06:26;30.37;;;16.10;;
5871;SDS011;2962;51.312;7.378;2023-02-20T10:08:56;34.77;;;18.17;;
5871;SDS011;2962;51.312;7.378;2023-02-20T10:14:51;25.63;;;16.20;;
5871;SDS011;2962;51.312;7.378;2023-02-20T10:17:11;20.15;;;12.88;;
5871;SDS011;2962;51.312;7.378;2023-02-20T10:22:48;32.25;;;16.73;;
5871;SDS011;2962;51.312;7.378;2023-02-20T10:25:24;35.07;;;16.63;;
5871;SDS011;2962;51.312;7.378;2023-02-20T10:30:35;27.93;;;17.87;;
5871;SDS011;2962;51.312;7.378;2023-02-20T10:36:06;32.15;;;17.25;;
5871;SDS011;2962;51.312;7.378;2023-02-20T10:38:40;26.02;;;13.32;;
5871;SDS011;2962;51.312;7.378;2023-02-20T10:44:09;29.75;;;16.15;;
5871;SDS011;2962;51.312;7.378;2023-02-20T10:46:49;31.42;;;16.23;;
5871;SDS011;2962;51.312;7.378;2023-02-20T10:49:17;31.40;;;18.15;;
5871;SDS011;2962;51.312;7.378;2023-02-20T10:51:49;34.17;;;17.50;;
5871;SDS011;2962;51.312;7.378;2023-02-20T10:54:22;31.67;;;17.08;;
5871;SDS011;2962;51.312;7.378;2023-02-20T10:57:09;39.58;;;17.58;;
5871;SDS011;2962;51.312;7.378;2023-02-20T10:59:46;38.47;;;17.13;;
5871;SDS011;2962;51.312;7.378;2023-02-20T11:02:23;28.97;;;15.00;;
5871;SDS011;2962;51.312;7.378;2023-02-20T11:04:53;36.60;;;16.17;;
5871;SDS011;2962;51.312;7.378;2023-02-20T11:07:24;33.28;;;15.68;;
5871;SDS011;2962;51.312;7.378;2023-02-20T11:09:50;31.20;;;16.87;;
5871;SDS011;2962;51.312;7.378;2023-02-20T11:12:38;31.67;;;16.63;;
5871;SDS011;2962;51.312;7.378;2023-02-20T11:15:09;27.60;;;14.07;;
5871;SDS011;2962;51.312;7.378;2023-02-20T11:17:38;28.80;;;16.50;;
5871;SDS011;2962;51.312;7.378;2023-02-20T11:20:04;31.73;;;16.87;;
5871;SDS011;2962;51.312;7.378;2023-02-20T11:22:50;27.87;;;12.33;;
5871;SDS011;2962;51.312;7.378;2023-02-20T11:25:17;32.60;;;16.30;;
5871;SDS011;2962;51.312;7.378;2023-02-20T11:27:51;29.63;;;15.90;;
5871;SDS011;2962;51.312;7.378;2023-02-20T11:30:23;24.53;;;14.00;;
5871;SDS011;2962;51.312;7.378;2023-02-20T11:33:20;38.77;;;15.97;;
5871;SDS011;2962;51.312;7.378;2023-02-20T11:35:51;23.73;;;13.40;;
5871;SDS011;2962;51.312;7.378;2023-02-20T11:40:46;28.50;;;15.13;;
5871;SDS011;2962;51.312;7.378;2023-02-20T11:43:31;18.23;;;11.77;;
5871;SDS011;2962;51.312;7.378;2023-02-20T11:48:34;22.00;;;13.90;;
5871;SDS011;2962;51.312;7.378;2023-02-20T11:50:59;20.67;;;9.57;;
5871;SDS011;2962;51.312;7.378;2023-02-20T11:53:28;26.57;;;13.13;;
5871;SDS011;2962;51.312;7.378;2023-02-20T11:56:15;24.40;;;12.60;;
5871;SDS011;2962;51.312;7.378;2023-02-20T11:58:43;27.43;;;13.47;;
5871;SDS011;2962;51.312;7.378;2023-02-20T12:01:29;19.23;;;11.23;;
5871;SDS011;2962;51.312;7.378;2023-02-20T12:03:57;27.90;;;14.73;;
5871;SDS011;2962;51.312;7.378;2023-02-20T12:06:41;22.20;;;13.03;;
5871;SDS011;2962;51.312;7.378;2023-02-20T12:09:14;18.70;;;10.40;;
5871;SDS011;2962;51.312;7.378;2023-02-20T12:11:42;18.57;;;13.00;;
5871;SDS011;2962;51.312;7.378;2023-02-20T12:14:11;13.60;;;9.40;;
5871;SDS011;2962;51.312;7.378;2023-02-20T12:19:17;24.90;;;14.00;;
5871;SDS011;2962;51.312;7.378;2023-02-20T12:21:54;29.77;;;15.70;;
5871;SDS011;2962;51.312;7.378;2023-02-20T12:24:53;25.37;;;12.00;;
5871;SDS011;2962;51.312;7.378;2023-02-20T12:27:33;15.53;;;10.67;;
5871;SDS011;2962;51.312;7.378;2023-02-20T12:36:09;12.57;;;9.27;;
5871;SDS011;2962;51.312;7.378;2023-02-20T12:38:45;21.93;;;10.10;;
5871;SDS011;2962;51.312;7.378;2023-02-20T12:44:12;24.23;;;11.63;;
5871;SDS011;2962;51.312;7.378;2023-02-20T12:49:18;26.50;;;14.70;;
5871;SDS011;2962;51.312;7.378;2023-02-20T12:52:02;18.87;;;11.07;;
5871;SDS011;2962;51.312;7.378;2023-02-20T13:00:00;26.30;;;12.40;;
5871;SDS011;2962;51.312;7.378;2023-02-20T13:02:35;22.57;;;14.27;;
5871;SDS011;2962;51.312;7.378;2023-02-20T13:05:05;20.03;;;14.10;;
5871;SDS011;2962;51.312;7.378;2023-02-20T13:07:44;30.97;;;16.17;;
5871;SDS011;2962;51.312;7.378;2023-02-20T13:10:23;21.10;;;11.53;;
5871;SDS011;2962;51.312;7.378;2023-02-20T13:12:51;20.47;;;11.40;;
5871;SDS011;2962;51.312;7.378;2023-02-20T13:20:44;25.57;;;15.43;;
5871;SDS011;2962;51.312;7.378;2023-02-20T13:25:49;27.80;;;13.77;;
5871;SDS011;2962;51.312;7.378;2023-02-20T13:28:23;26.43;;;14.60;;
5871;SDS011;2962;51.312;7.378;2023-02-20T13:31:06;32.40;;;16.47;;
5871;SDS011;2962;51.312;7.378;2023-02-20T13:33:41;25.00;;;12.90;;
5871;SDS011;2962;51.312;7.378;2023-02-20T13:36:36;22.50;;;13.00;;
5871;SDS011;2962;51.312;7.378;2023-02-20T13:57:37;22.70;;;10.97;;
5871;SDS011;2962;51.312;7.378;2023-02-20T14:06:09;25.97;;;13.20;;
5871;SDS011;2962;51.312;7.378;2023-02-20T14:08:39;20.50;;;13.00;;
5871;SDS011;2962;51.312;7.378;2023-02-20T14:11:07;27.67;;;14.20;;
5871;SDS011;2962;51.312;7.378;2023-02-20T14:13:35;22.80;;;11.87;;
5871;SDS011;2962;51.312;7.378;2023-02-20T14:16:02;23.87;;;13.63;;
5871;SDS011;2962;51.312;7.378;2023-02-20T14:18:30;30.67;;;12.40;;
5871;SDS011;2962;51.312;7.378;2023-02-20T14:21:04;26.55;;;14.55;;
5871;SDS011;2962;51.312;7.378;2023-02-20T14:23:34;25.10;;;12.67;;
5871;SDS011;2962;51.312;7.378;2023-02-20T14:26:02;27.23;;;14.03;;
5871;SDS011;2962;51.312;7.378;2023-02-20T14:28:30;25.03;;;10.70;;
5871;SDS011;2962;51.312;7.378;2023-02-20T14:31:17;19.67;;;11.47;;
5871;SDS011;2962;51.312;7.378;2023-02-20T14:33:50;21.90;;;12.30;;
5871;SDS011;2962;51.312;7.378;2023-02-20T14:36:20;31.00;;;15.27;;
5871;SDS011;2962;51.312;7.378;2023-02-20T14:41:27;33.27;;;13.37;;
5871;SDS011;2962;51.312;7.378;2023-02-20T14:43:56;32.77;;;16.83;;
5871;SDS011;2962;51.312;7.378;2023-02-20T14:46:24;32.73;;;13.03;;
5871;SDS011;2962;51.312;7.378;2023-02-20T14:49:05;22.63;;;10.20;;
5871;SDS011;2962;51.312;7.378;2023-02-20T14:51:37;48.13;;;23.07;;
5871;SDS011;2962;51.312;7.378;2023-02-20T14:54:14;29.97;;;12.40;;
5871;SDS011;2962;51.312;7.378;2023-02-20T14:56:40;25.73;;;12.30;;
5871;SDS011;2962;51.312;7.378;2023-02-20T15:02:16;37.00;;;15.43;;
5871;SDS011;2962;51.312;7.378;2023-02-20T15:04:50;34.80;;;16.37;;
5871;SDS011;2962;51.312;7.378;2023-02-20T15:07:22;32.30;;;14.25;;
5871;SDS011;2962;51.312;7.378;2023-02-20T15:09:50;38.40;;;19.38;;
5871;SDS011;2962;51.312;7.378;2023-02-20T15:12:26;27.35;;;11.93;;
5871;SDS011;2962;51.312;7.378;2023-02-20T15:14:58;32.53;;;13.30;;
5871;SDS011;2962;51.312;7.378;2023-02-20T15:17:27;43.50;;;18.00;;
5871;SDS011;2962;51.312;7.378;2023-02-20T15:19:55;34.93;;;17.80;;
5871;SDS011;2962;51.312;7.378;2023-02-20T15:24:46;32.80;;;16.80;;
5871;SDS011;2962;51.312;7.378;2023-02-20T15:27:13;43.63;;;17.40;;
5871;SDS011;2962;51.312;7.378;2023-02-20T15:30:12;27.00;;;12.30;;
5871;SDS011;2962;51.312;7.378;2023-02-20T15:32:40;19.50;;;12.23;;
5871;SDS011;2962;51.312;7.378;2023-02-20T15:35:11;34.60;;;14.60;;
5871;SDS011;2962;51.312;7.378;2023-02-20T15:37:39;40.50;;;20.53;;
5871;SDS011;2962;51.312;7.378;2023-02-20T15:40:06;30.20;;;12.50;;
5871;SDS011;2962;51.312;7.378;2023-02-20T15:43:00;23.37;;;11.87;;
5871;SDS011;2962;51.312;7.378;2023-02-20T15:45:27;25.30;;;12.63;;
5871;SDS011;2962;51.312;7.378;2023-02-20T15:47:53;33.90;;;15.03;;
5871;SDS011;2962;51.312;7.378;2023-02-20T15:50:19;37.30;;;14.60;;
5871;SDS011;2962;51.312;7.378;2023-02-20T15:52:45;36.20;;;15.00;;
5871;SDS011;2962;51.312;7.378;2023-02-20T15:55:15;39.53;;;16.53;;
5871;SDS011;2962;51.312;7.378;2023-02-20T15:57:44;30.70;;;12.33;;
5871;SDS011;2962;51.312;7.378;2023-02-20T16:00:16;25.17;;;11.40;;
5871;SDS011;2962;51.312;7.378;2023-02-20T16:02:57;42.50;;;15.50;;
5871;SDS011;2962;51.312;7.378;2023-02-20T16:05:25;35.70;;;16.43;;
5871;SDS011;2962;51.312;7.378;2023-02-20T16:07:50;33.27;;;13.90;;
5871;SDS011;2962;51.312;7.378;2023-02-20T16:10:17;31.67;;;14.40;;
5871;SDS011;2962;51.312;7.378;2023-02-20T16:12:43;44.10;;;17.70;;
5871;SDS011;2962;51.312;7.378;2023-02-20T16:15:16;42.83;;;17.20;;
5871;SDS011;2962;51.312;7.378;2023-02-20T16:17:42;34.23;;;15.30;;
5871;SDS011;2962;51.312;7.378;2023-02-20T16:20:18;51.20;;;17.67;;
5871;SDS011;2962;51.312;7.378;2023-02-20T16:22:48;36.88;;;17.55;;
5871;SDS011;2962;51.312;7.378;2023-02-20T16:25:15;48.00;;;19.20;;
5871;SDS011;2962;51.312;7.378;2023-02-20T16:27:42;47.63;;;19.97;;
5871;SDS011;2962;51.312;7.378;2023-02-20T16:30:13;44.93;;;17.33;;
5871;SDS011;2962;51.312;7.378;2023-02-20T16:32:42;40.83;;;16.30;;
5871;SDS011;2962;51.312;7.378;2023-02-20T16:35:10;32.33;;;13.13;;
5871;SDS011;2962;51.312;7.378;2023-02-20T16:37:36;43.40;;;19.30;;
5871;SDS011;2962;51.312;7.378;2023-02-20T16:40:01;34.33;;;14.60;;
5871;SDS011;2962;51.312;7.378;2023-02-20T16:42:34;29.20;;;14.07;;
5871;SDS011;2962;51.312;7.378;2023-02-20T16:47:41;48.57;;;19.40;;
5871;SDS011;2962;51.312;7.378;2023-02-20T16:50:09;51.80;;;19.83;;
5871;SDS011;2962;51.312;7.378;2023-02-20T16:52:37;43.43;;;19.33;;
5871;SDS011;2962;51.312;7.378;2023-02-20T16:57:52;39.03;;;19.17;;
5871;SDS011;2962;51.312;7.378;2023-02-20T17:00:19;32.80;;;13.87;;
5871;SDS011;2962;51.312;7.378;2023-02-20T17:02:49;39.10;;;17.33;;